Detalii statie COMAGRA BEREGSAU [00001994]

Toti senzorii

Date Temperatura solului [C]Precipitatii [mm]Voltaj baterie [mV]Leaf Wetness [Min]HC Air temperature [C]HC Relative humidity [%]Punctul de roua [C]
medieminmaxsumaultimatimpmedieminmaxmediemediemin
2018-06-20 10:00:00 20.2 20.2 20.4 0 7050 25.25 23.69 27.25 100 25.2 23.6
2018-06-20 11:00:00 20.4 20.3 20.6 0 7176 28.34 27.18 29.53 100 28.2 27.1
2018-06-20 12:00:00 20.6 20.5 20.9 0 7186 29.84 28.57 30.72 96.21 29 28.1
2018-06-20 13:00:00 21.4 21 22 0 7186 30.88 29.91 31.79 88.3 28.6 28.1
2018-06-20 14:00:00 22.8 22.1 23.6 0 7186 31.56 29.7 32.79 85.32 28.6 27.1
2018-06-20 15:00:00 24.1 23.6 24.8 0 7176 33.08 31.78 34.14 79.28 28.8 27.6
2018-06-20 16:00:00 25.4 24.9 26 0 7186 33.81 32.63 34.67 73.12 28.1 27.3
2018-06-20 17:00:00 26.4 26 26.8 0 7176 33.89 32.71 34.55 72.93 28.1 27.2
2018-06-20 18:00:00 27.1 26.9 27.3 0 7186 33.45 32.4 34.45 74 27.9 27.5
2018-06-20 19:00:00 27.4 27.4 27.6 0 7166 31.53 30.03 32.57 76.77 26.8 26.3
2018-06-20 20:00:00 27.4 27.2 27.6 0 6854 27.69 25.21 29.83 89.82 25.7 24
2018-06-20 21:00:00 26.8 26.5 27.2 0 6816 23.38 22.62 24.67 99.45 23.2 22.6
2018-06-20 22:00:00 26.2 26 26.8 0 6806 23.11 22.93 23.36 100 23 22.9
2018-06-20 23:00:00 25.5 25.3 25.9 0 6786 22.48 22.07 23.09 100 22.4 22
2018-06-21 00:00:00 25 24.7 25.3 0 6796 21.71 21.19 22.17 100 21.6 21.1
2018-06-21 01:00:00 24.4 23.9 24.8 0 6776 20.37 19.71 21.06 100 20.3 19.7
2018-06-21 02:00:00 24 23.8 24.3 0 6776 19.83 19.58 19.95 100 19.7 19.5
2018-06-21 03:00:00 23.5 23.4 23.9 0 6766 19.48 19.39 19.61 100 19.4 19.3
2018-06-21 04:00:00 23.1 23 23.4 0 6766 19.25 18.99 19.5 100 19.2 18.9
2018-06-21 05:00:00 22.8 22.7 23 0 6766 18.57 18.34 18.85 100 18.5 18.3
2018-06-21 06:00:00 22.4 22.3 22.7 0 6796 18.53 18.24 19.04 100 18.4 18.2
2018-06-21 07:00:00 22.1 22.1 22.3 0 6874 19.94 19.16 20.98 100 19.8 19.1
2018-06-21 08:00:00 22 22 22.2 0 6982 22.8 21.3 23.91 100 22.7 21.3
2018-06-21 09:00:00 22 21.9 22.2 0 7080 25.05 23.97 26.23 100 25 23.9
2018-06-21 10:00:00 22.1 22 22.3 0 7166 27.54 26.79 28.31 99.98 27.4 26.7
2018-06-21 11:00:00 22.4 22.2 22.5 0 7186 29.47 28.42 30.88 93.58 28.1 27.6
2018-06-21 12:00:00 22.8 22.7 23.1 0 7186 31.32 30.49 32.34 81.56 27.6 27
2018-06-21 13:00:00 23.7 23.2 24.3 0 7186 31.74 30.42 33.19 75.87 26.8 25.2
2018-06-21 14:00:00 24.9 24.3 25.4 0 7166 31.54 30.18 32.83 74.86 26.3 25.4
2018-06-21 15:00:00 25.7 25.5 25.9 45.4 6914 22.97 19.95 30.53 95.1 21.9 19.9
2018-06-21 16:00:00 25.2 24.9 25.7 10.4 7176 21.44 20.76 22.27 100 21.4 20.7
2018-06-21 17:00:00 24.5 24.3 24.8 0 7176 22.86 22.32 23.54 100 22.8 22.3
2018-06-21 18:00:00 24.1 24.1 24.3 0 7098 24.02 23.67 24.36 100 23.9 23.6
2018-06-21 19:00:00 24.2 24.1 24.3 0 7010 23.86 23.41 24.21 100 23.8 23.4
2018-06-21 20:00:00 24.1 23.9 24.3 0 6854 22.61 22.05 23.17 100 22.5 22
2018-06-21 21:00:00 23.8 23.7 24 0 6816 21.55 21.19 21.97 100 21.5 21.1
2018-06-21 22:00:00 23.5 23.3 23.7 0 6796 20.7 20.52 21.14 100 20.6 20.5
2018-06-21 23:00:00 23.1 22.9 23.4 0 6796 21.55 21.03 21.87 100 21.5 21
2018-06-22 00:00:00 22.7 22.5 23.1 0 6786 20.52 19.63 21.35 100 20.4 19.6
2018-06-22 01:00:00 22.3 22.2 22.6 0 6776 18.98 18.75 19.51 100 18.9 18.7
2018-06-22 02:00:00 22.1 21.9 22.3 0 6776 18.92 18.76 19.01 100 18.8 18.7
2018-06-22 03:00:00 21.7 21.6 22.1 0 6766 18.87 18.73 19 100 18.8 18.7
2018-06-22 04:00:00 21.6 21.5 21.8 0 6766 18.89 18.81 19.25 100 18.8 18.8
2018-06-22 05:00:00 21.3 21.2 21.5 0 6748 18.51 17.98 19.27 100 18.4 17.9
2018-06-22 06:00:00 21.1 21 21.3 0 6786 18.21 18.07 18.35 100 18.1 18
2018-06-22 07:00:00 20.9 20.8 21 0 6932 19.56 18.48 20.65 100 19.5 18.4
2018-06-22 08:00:00 20.8 20.8 21 0 7088 22.13 20.84 22.91 100 22.1 20.8
2018-06-22 09:00:00 20.8 20.8 21 0.4 7000 21.35 20.11 22.46 100 21.3 20.1